TAM6700 SBKG-SBFN
Flight info
| Callsign | TAM6700 |
|---|---|
| Flight time | 1h 17m |
| Altitude | 35000 |
| Route | JPS DCT FNR |
| Aircraft | A320/M-SDE3FGHIRWY/LB1 |
Departure
| Time | 2026-05-05 23:58 |
|---|---|
| Airport | Presidente João Suassuna Airport (SBKG) |
Arrival
| Time | 2026-05-06 01:15 |
|---|---|
| Airport | Fernando de Noronha Airport (SBFN) |
| Time | Latitude | Longitude | Altitude | Speed | Heading |
|---|---|---|---|---|---|
| 2026-05-05 23:47 | -7.26961 | -35.89604 | 1645 ft | 2 kts | 124° |
| 2026-05-05 23:47 | -7.26952 | -35.89618 | 1646 ft | 2 kts | 124° |
| 2026-05-05 23:48 | -7.26942 | -35.89632 | 1643 ft | 2 kts | 123° |
| 2026-05-05 23:48 | -7.26932 | -35.89646 | 1642 ft | 2 kts | 128° |
| 2026-05-05 23:48 | -7.26922 | -35.89660 | 1640 ft | 2 kts | 124° |
| 2026-05-05 23:48 | -7.26912 | -35.89674 | 1642 ft | 2 kts | 124° |
| 2026-05-05 23:49 | -7.26903 | -35.89688 | 1639 ft | 2 kts | 124° |
| 2026-05-05 23:49 | -7.26893 | -35.89702 | 1644 ft | 2 kts | 124° |
| 2026-05-05 23:49 | -7.26883 | -35.89716 | 1647 ft | 2 kts | 124° |
| 2026-05-05 23:49 | -7.26873 | -35.89731 | 1639 ft | 2 kts | 124° |
| 2026-05-05 23:50 | -7.26863 | -35.89745 | 1646 ft | 2 kts | 124° |
| 2026-05-05 23:50 | -7.26854 | -35.89759 | 1644 ft | 3 kts | 124° |
| 2026-05-05 23:50 | -7.26844 | -35.89774 | 1641 ft | 3 kts | 124° |
| 2026-05-05 23:50 | -7.26834 | -35.89788 | 1646 ft | 3 kts | 130° |
| 2026-05-05 23:51 | -7.26823 | -35.89801 | 1641 ft | 2 kts | 125° |
| 2026-05-05 23:51 | -7.26813 | -35.89815 | 1641 ft | 2 kts | 125° |
| 2026-05-05 23:51 | -7.26803 | -35.89830 | 1643 ft | 2 kts | 125° |
| 2026-05-05 23:51 | -7.26794 | -35.89844 | 1640 ft | 2 kts | 125° |
| 2026-05-05 23:52 | -7.26756 | -35.89897 | 1641 ft | 2 kts | 125° |
| 2026-05-05 23:53 | -7.26746 | -35.89911 | 1641 ft | 2 kts | 125° |
| 2026-05-05 23:53 | -7.26736 | -35.89926 | 1638 ft | 2 kts | 125° |
| 2026-05-05 23:53 | -7.26726 | -35.89940 | 1639 ft | 2 kts | 125° |
| 2026-05-05 23:53 | -7.26716 | -35.89954 | 1644 ft | 2 kts | 125° |
| 2026-05-05 23:54 | -7.26706 | -35.89968 | 1639 ft | 3 kts | 125° |
| 2026-05-05 23:54 | -7.26696 | -35.89983 | 1647 ft | 2 kts | 125° |
| 2026-05-05 23:54 | -7.26687 | -35.89997 | 1641 ft | 3 kts | 125° |
| 2026-05-05 23:54 | -7.26677 | -35.90011 | 1641 ft | 2 kts | 125° |
| 2026-05-05 23:55 | -7.26667 | -35.90025 | 1646 ft | 2 kts | 125° |
| 2026-05-05 23:55 | -7.26657 | -35.90040 | 1643 ft | 3 kts | 125° |
| 2026-05-05 23:55 | -7.26647 | -35.90054 | 1638 ft | 3 kts | 125° |
| 2026-05-05 23:55 | -7.26636 | -35.90068 | 1638 ft | 3 kts | 125° |
| 2026-05-05 23:56 | -7.26626 | -35.90083 | 1638 ft | 2 kts | 125° |
| 2026-05-05 23:56 | -7.26616 | -35.90097 | 1638 ft | 3 kts | 125° |
| 2026-05-05 23:56 | -7.26606 | -35.90112 | 1640 ft | 3 kts | 125° |
| 2026-05-05 23:56 | -7.26596 | -35.90126 | 1643 ft | 2 kts | 125° |
| 2026-05-05 23:57 | -7.26593 | -35.90130 | 1644 ft | 0 kts | 125° |
| 2026-05-05 23:57 | -7.26643 | -35.90057 | 1638 ft | 48 kts | 125° |
| 2026-05-05 23:57 | -7.27006 | -35.89537 | 1642 ft | 129 kts | 125° |
| 2026-05-05 23:57 | -7.27573 | -35.88717 | 2218 ft | 145 kts | 124° |
| 2026-05-05 23:58 | -7.28150 | -35.87882 | 2955 ft | 150 kts | 124° |
| 2026-05-05 23:58 | -7.28693 | -35.86883 | 3185 ft | 179 kts | 105° |
| 2026-05-05 23:58 | -7.28676 | -35.85534 | 3427 ft | 208 kts | 87° |
| 2026-05-05 23:58 | -7.28411 | -35.84032 | 3770 ft | 230 kts | 83° |
| 2026-05-05 23:59 | -7.28074 | -35.82370 | 4229 ft | 254 kts | 82° |
| 2026-05-05 23:59 | -7.27715 | -35.80589 | 5031 ft | 263 kts | 83° |
| 2026-05-05 23:59 | -7.27348 | -35.78767 | 5890 ft | 269 kts | 78° |
| 2026-05-05 23:59 | -7.26488 | -35.77051 | 6688 ft | 284 kts | 53° |
| 2026-05-06 00:00 | -7.25069 | -35.75645 | 7532 ft | 287 kts | 46° |
| 2026-05-06 00:00 | -7.23602 | -35.74283 | 8461 ft | 287 kts | 46° |
| 2026-05-06 00:00 | -7.22128 | -35.72922 | 9265 ft | 291 kts | 43° |
| 2026-05-06 00:00 | -7.20622 | -35.71525 | 9929 ft | 300 kts | 44° |
| 2026-05-06 00:01 | -7.19057 | -35.70068 | 10377 ft | 315 kts | 45° |
| 2026-05-06 00:01 | -7.17393 | -35.68508 | 10575 ft | 337 kts | 45° |
| 2026-05-06 00:01 | -7.15644 | -35.66870 | 11043 ft | 347 kts | 45° |
| 2026-05-06 00:01 | -7.13863 | -35.65204 | 11687 ft | 351 kts | 45° |
| 2026-05-06 00:02 | -7.12060 | -35.63522 | 12353 ft | 355 kts | 44° |
| 2026-05-06 00:02 | -7.10242 | -35.61825 | 13009 ft | 358 kts | 44° |
| 2026-05-06 00:02 | -7.08412 | -35.60115 | 13695 ft | 361 kts | 44° |
| 2026-05-06 00:02 | -7.06582 | -35.58403 | 14281 ft | 364 kts | 44° |
| 2026-05-06 00:03 | -7.04717 | -35.56658 | 14847 ft | 368 kts | 45° |
| 2026-05-06 00:03 | -7.02831 | -35.54899 | 15376 ft | 372 kts | 44° |
| 2026-05-06 00:03 | -7.00921 | -35.53116 | 15911 ft | 376 kts | 45° |
| 2026-05-06 00:03 | -6.98999 | -35.51315 | 16452 ft | 379 kts | 45° |
| 2026-05-06 00:04 | -6.97060 | -35.49497 | 16955 ft | 383 kts | 44° |
| 2026-05-06 00:04 | -6.95093 | -35.47659 | 17476 ft | 387 kts | 44° |
| 2026-05-06 00:04 | -6.93110 | -35.45809 | 17977 ft | 390 kts | 44° |
| 2026-05-06 00:04 | -6.91110 | -35.43940 | 18455 ft | 394 kts | 44° |
| 2026-05-06 00:05 | -6.87061 | -35.40158 | 19284 ft | 400 kts | 44° |
| 2026-05-06 00:05 | -6.85017 | -35.38250 | 19716 ft | 403 kts | 44° |
| 2026-05-06 00:05 | -6.82956 | -35.36328 | 20165 ft | 404 kts | 44° |
| 2026-05-06 00:06 | -6.80888 | -35.34397 | 20595 ft | 407 kts | 43° |
| 2026-05-06 00:06 | -6.78804 | -35.32449 | 21015 ft | 410 kts | 44° |
| 2026-05-06 00:06 | -6.76688 | -35.30470 | 21151 ft | 420 kts | 43° |
| 2026-05-06 00:06 | -6.74520 | -35.28446 | 21266 ft | 430 kts | 44° |
| 2026-05-06 00:07 | -6.72310 | -35.26380 | 21402 ft | 438 kts | 43° |
| 2026-05-06 00:07 | -6.70053 | -35.24273 | 21511 ft | 446 kts | 44° |
| 2026-05-06 00:07 | -6.67790 | -35.22163 | 21640 ft | 453 kts | 44° |
| 2026-05-06 00:07 | -6.65465 | -35.19993 | 21760 ft | 459 kts | 44° |
| 2026-05-06 00:08 | -6.63109 | -35.17795 | 21888 ft | 464 kts | 43° |
| 2026-05-06 00:08 | -6.60733 | -35.15581 | 22030 ft | 468 kts | 43° |
| 2026-05-06 00:08 | -6.60648 | -35.15501 | 22037 ft | 468 kts | 44° |
| 2026-05-06 00:08 | -6.59028 | -35.13997 | 22174 ft | 470 kts | 43° |
| 2026-05-06 00:09 | -6.56616 | -35.11758 | 22371 ft | 472 kts | 43° |
| 2026-05-06 00:09 | -6.54204 | -35.09511 | 22593 ft | 474 kts | 43° |
| 2026-05-06 00:09 | -6.51781 | -35.07254 | 22802 ft | 476 kts | 43° |
| 2026-05-06 00:09 | -6.49352 | -35.04991 | 23041 ft | 477 kts | 43° |
| 2026-05-06 00:10 | -6.46918 | -35.02718 | 23258 ft | 478 kts | 43° |
| 2026-05-06 00:10 | -6.44471 | -35.00433 | 23422 ft | 481 kts | 43° |
| 2026-05-06 00:10 | -6.42010 | -34.98138 | 23554 ft | 484 kts | 43° |
| 2026-05-06 00:10 | -6.39534 | -34.95833 | 23655 ft | 487 kts | 43° |
| 2026-05-06 00:11 | -6.37044 | -34.93514 | 23789 ft | 489 kts | 43° |
| 2026-05-06 00:11 | -6.34547 | -34.91189 | 23925 ft | 490 kts | 43° |
| 2026-05-06 00:11 | -6.32043 | -34.88855 | 24117 ft | 491 kts | 43° |
| 2026-05-06 00:11 | -6.29534 | -34.86516 | 24293 ft | 492 kts | 43° |
| 2026-05-06 00:12 | -6.27030 | -34.84181 | 24511 ft | 491 kts | 43° |
| 2026-05-06 00:12 | -6.24522 | -34.81845 | 24720 ft | 491 kts | 43° |
| 2026-05-06 00:12 | -6.22009 | -34.79507 | 24936 ft | 492 kts | 43° |
| 2026-05-06 00:12 | -6.19498 | -34.77170 | 25159 ft | 492 kts | 43° |
| 2026-05-06 00:13 | -6.16989 | -34.74834 | 25370 ft | 492 kts | 43° |
| 2026-05-06 00:13 | -6.14477 | -34.72496 | 25604 ft | 492 kts | 43° |
| 2026-05-06 00:13 | -6.11964 | -34.70159 | 25831 ft | 492 kts | 42° |
| 2026-05-06 00:13 | -6.09450 | -34.67826 | 26073 ft | 492 kts | 42° |
| 2026-05-06 00:14 | -6.06933 | -34.65490 | 26300 ft | 492 kts | 42° |
| 2026-05-06 00:14 | -6.04416 | -34.63154 | 26537 ft | 493 kts | 42° |
| 2026-05-06 00:14 | -6.01900 | -34.60814 | 26778 ft | 493 kts | 42° |
| 2026-05-06 00:14 | -5.99389 | -34.58474 | 27026 ft | 493 kts | 42° |
| 2026-05-06 00:15 | -5.96877 | -34.56132 | 27276 ft | 493 kts | 42° |
| 2026-05-06 00:15 | -5.94360 | -34.53791 | 27534 ft | 493 kts | 42° |
| 2026-05-06 00:15 | -5.91872 | -34.51480 | 27787 ft | 493 kts | 41° |
| 2026-05-06 00:15 | -5.89351 | -34.49140 | 28052 ft | 493 kts | 42° |
| 2026-05-06 00:16 | -5.86827 | -34.46799 | 28322 ft | 493 kts | 42° |
| 2026-05-06 00:16 | -5.84312 | -34.44463 | 28662 ft | 492 kts | 41° |
| 2026-05-06 00:16 | -5.81800 | -34.42130 | 28964 ft | 491 kts | 42° |
| 2026-05-06 00:16 | -5.79292 | -34.39802 | 29245 ft | 491 kts | 41° |
| 2026-05-06 00:17 | -5.76783 | -34.37473 | 29539 ft | 491 kts | 41° |
| 2026-05-06 00:17 | -5.74278 | -34.35146 | 29832 ft | 491 kts | 41° |
| 2026-05-06 00:17 | -5.71770 | -34.32813 | 30106 ft | 491 kts | 41° |
| 2026-05-06 00:17 | -5.69263 | -34.30483 | 30328 ft | 491 kts | 42° |
| 2026-05-06 00:18 | -5.66751 | -34.28152 | 30579 ft | 491 kts | 40° |
| 2026-05-06 00:18 | -5.64236 | -34.25824 | 30795 ft | 492 kts | 42° |
| 2026-05-06 00:18 | -5.61720 | -34.23495 | 31032 ft | 492 kts | 41° |
| 2026-05-06 00:18 | -5.59202 | -34.21162 | 31271 ft | 492 kts | 41° |
| 2026-05-06 00:19 | -5.56688 | -34.18832 | 31563 ft | 491 kts | 42° |
| 2026-05-06 00:19 | -5.54180 | -34.16503 | 31842 ft | 491 kts | 41° |
| 2026-05-06 00:19 | -5.51671 | -34.14175 | 32080 ft | 491 kts | 41° |
| 2026-05-06 00:19 | -5.49162 | -34.11848 | 32350 ft | 491 kts | 40° |
| 2026-05-06 00:20 | -5.46649 | -34.09516 | 32596 ft | 491 kts | 41° |
| 2026-05-06 00:20 | -5.44143 | -34.07193 | 32891 ft | 491 kts | 41° |
| 2026-05-06 00:20 | -5.41633 | -34.04867 | 33124 ft | 491 kts | 41° |
| 2026-05-06 00:20 | -5.39154 | -34.02570 | 33385 ft | 491 kts | 41° |
| 2026-05-06 00:21 | -5.36644 | -34.00245 | 33665 ft | 491 kts | 41° |
| 2026-05-06 00:21 | -5.34132 | -33.97918 | 33933 ft | 491 kts | 41° |
| 2026-05-06 00:21 | -5.31623 | -33.95593 | 34202 ft | 490 kts | 41° |
| 2026-05-06 00:21 | -5.29115 | -33.93269 | 34449 ft | 490 kts | 41° |
| 2026-05-06 00:22 | -5.26614 | -33.90955 | 34721 ft | 489 kts | 41° |
| 2026-05-06 00:22 | -5.24111 | -33.88637 | 34931 ft | 489 kts | 41° |
| 2026-05-06 00:22 | -5.21610 | -33.86321 | 34991 ft | 489 kts | 40° |
| 2026-05-06 00:23 | -5.17455 | -33.82472 | 34996 ft | 488 kts | 40° |
| 2026-05-06 00:23 | -5.12467 | -33.77846 | 34994 ft | 488 kts | 40° |
| 2026-05-06 00:24 | -5.07485 | -33.73235 | 34993 ft | 488 kts | 40° |
| 2026-05-06 00:24 | -5.02475 | -33.68610 | 34978 ft | 488 kts | 40° |
| 2026-05-06 00:25 | -4.97499 | -33.64012 | 34988 ft | 486 kts | 40° |
| 2026-05-06 00:25 | -4.92535 | -33.59406 | 34995 ft | 486 kts | 40° |
| 2026-05-06 00:26 | -4.87574 | -33.54816 | 34725 ft | 483 kts | 40° |
| 2026-05-06 00:26 | -4.85107 | -33.52539 | 33564 ft | 481 kts | 40° |
| 2026-05-06 00:26 | -4.82647 | -33.50265 | 32283 ft | 480 kts | 40° |
| 2026-05-06 00:26 | -4.80194 | -33.47999 | 31072 ft | 478 kts | 40° |
| 2026-05-06 00:27 | -4.77754 | -33.45742 | 29896 ft | 476 kts | 41° |
| 2026-05-06 00:27 | -4.75327 | -33.43496 | 28572 ft | 475 kts | 41° |
| 2026-05-06 00:27 | -4.72876 | -33.41237 | 27305 ft | 481 kts | 42° |
| 2026-05-06 00:27 | -4.70435 | -33.38988 | 26469 ft | 478 kts | 42° |
| 2026-05-06 00:28 | -4.68009 | -33.36748 | 26225 ft | 459 kts | 42° |
| 2026-05-06 00:28 | -4.65693 | -33.34608 | 25750 ft | 449 kts | 43° |
| 2026-05-06 00:28 | -4.63436 | -33.32520 | 25235 ft | 444 kts | 43° |
| 2026-05-06 00:28 | -4.61174 | -33.30426 | 25030 ft | 443 kts | 43° |
| 2026-05-06 00:29 | -4.58915 | -33.28335 | 24979 ft | 441 kts | 43° |
| 2026-05-06 00:29 | -4.56652 | -33.26243 | 25008 ft | 443 kts | 43° |
| 2026-05-06 00:29 | -4.54389 | -33.24152 | 25002 ft | 442 kts | 43° |
| 2026-05-06 00:29 | -4.52124 | -33.22061 | 24995 ft | 443 kts | 43° |
| 2026-05-06 00:30 | -4.49853 | -33.19965 | 24991 ft | 442 kts | 43° |
| 2026-05-06 00:30 | -4.47586 | -33.17875 | 24992 ft | 443 kts | 43° |
| 2026-05-06 00:30 | -4.45311 | -33.15780 | 24995 ft | 442 kts | 43° |
| 2026-05-06 00:30 | -4.43046 | -33.13692 | 24998 ft | 443 kts | 43° |
| 2026-05-06 00:31 | -4.40780 | -33.11602 | 25000 ft | 442 kts | 43° |
| 2026-05-06 00:31 | -4.38511 | -33.09505 | 24996 ft | 443 kts | 43° |
| 2026-05-06 00:31 | -4.36578 | -33.07235 | 24986 ft | 425 kts | 60° |
| 2026-05-06 00:31 | -4.35556 | -33.04544 | 24988 ft | 406 kts | 78° |
| 2026-05-06 00:32 | -4.35308 | -33.01795 | 24995 ft | 388 kts | 91° |
| 2026-05-06 00:32 | -4.35634 | -32.99167 | 25003 ft | 372 kts | 102° |
| 2026-05-06 00:32 | -4.36451 | -32.96763 | 24994 ft | 357 kts | 114° |
| 2026-05-06 00:32 | -4.37704 | -32.94677 | 24993 ft | 343 kts | 127° |
| 2026-05-06 00:33 | -4.39315 | -32.92981 | 24992 ft | 330 kts | 138° |
| 2026-05-06 00:33 | -4.41194 | -32.91690 | 24993 ft | 327 kts | 150° |
| 2026-05-06 00:33 | -4.43288 | -32.90805 | 24994 ft | 328 kts | 162° |
| 2026-05-06 00:33 | -4.45526 | -32.90363 | 24996 ft | 328 kts | 174° |
| 2026-05-06 00:34 | -4.47812 | -32.90386 | 24999 ft | 331 kts | 186° |
| 2026-05-06 00:34 | -4.50055 | -32.90878 | 24996 ft | 331 kts | 198° |
| 2026-05-06 00:34 | -4.52159 | -32.91817 | 24996 ft | 333 kts | 211° |
| 2026-05-06 00:34 | -4.54069 | -32.93132 | 24994 ft | 334 kts | 218° |
| 2026-05-06 00:35 | -4.55855 | -32.94626 | 24996 ft | 334 kts | 221° |
| 2026-05-06 00:35 | -4.57561 | -32.96207 | 25005 ft | 333 kts | 224° |
| 2026-05-06 00:35 | -4.59223 | -32.97816 | 24996 ft | 332 kts | 224° |
| 2026-05-06 00:35 | -4.60887 | -32.99436 | 24995 ft | 334 kts | 224° |
| 2026-05-06 00:36 | -4.62561 | -33.01045 | 25006 ft | 334 kts | 223° |
| 2026-05-06 00:36 | -4.64192 | -33.02704 | 24995 ft | 334 kts | 231° |
| 2026-05-06 00:36 | -4.65480 | -33.04586 | 24994 ft | 331 kts | 242° |
| 2026-05-06 00:36 | -4.66378 | -33.06711 | 24996 ft | 331 kts | 255° |
| 2026-05-06 00:37 | -4.66824 | -33.08972 | 24999 ft | 332 kts | 267° |
| 2026-05-06 00:37 | -4.66803 | -33.11272 | 24998 ft | 329 kts | 278° |
| 2026-05-06 00:37 | -4.66323 | -33.13504 | 25006 ft | 327 kts | 291° |
| 2026-05-06 00:37 | -4.65415 | -33.15575 | 25001 ft | 324 kts | 302° |
| 2026-05-06 00:38 | -4.64116 | -33.17414 | 25003 ft | 321 kts | 314° |
| 2026-05-06 00:38 | -4.62498 | -33.18944 | 25002 ft | 319 kts | 325° |
| 2026-05-06 00:38 | -4.60627 | -33.20123 | 25007 ft | 317 kts | 336° |
| 2026-05-06 00:38 | -4.58575 | -33.20911 | 25003 ft | 314 kts | 348° |
| 2026-05-06 00:39 | -4.56426 | -33.21282 | 25007 ft | 313 kts | 357° |
| 2026-05-06 00:39 | -4.54242 | -33.21231 | 25005 ft | 313 kts | 9° |
| 2026-05-06 00:39 | -4.52123 | -33.20755 | 25011 ft | 311 kts | 20° |
| 2026-05-06 00:39 | -4.50142 | -33.19885 | 25013 ft | 310 kts | 31° |
| 2026-05-06 00:40 | -4.48347 | -33.18678 | 25011 ft | 311 kts | 38° |
| 2026-05-06 00:40 | -4.46684 | -33.17297 | 24999 ft | 310 kts | 42° |
| 2026-05-06 00:40 | -4.45096 | -33.15832 | 25000 ft | 311 kts | 44° |
| 2026-05-06 00:40 | -4.43533 | -33.14330 | 24999 ft | 312 kts | 44° |
| 2026-05-06 00:41 | -4.41979 | -33.12826 | 25002 ft | 311 kts | 44° |
| 2026-05-06 00:41 | -4.40414 | -33.11327 | 25015 ft | 312 kts | 44° |
| 2026-05-06 00:41 | -4.38842 | -33.09828 | 25002 ft | 311 kts | 46° |
| 2026-05-06 00:41 | -4.37626 | -33.08089 | 25002 ft | 310 kts | 67° |
| 2026-05-06 00:42 | -4.37137 | -33.05984 | 25003 ft | 313 kts | 89° |
| 2026-05-06 00:42 | -4.37487 | -33.03842 | 25007 ft | 315 kts | 110° |
| 2026-05-06 00:42 | -4.38643 | -33.01982 | 25003 ft | 318 kts | 134° |
| 2026-05-06 00:42 | -4.40449 | -33.00700 | 25009 ft | 322 kts | 157° |
| 2026-05-06 00:43 | -4.42639 | -33.00226 | 25008 ft | 325 kts | 179° |
| 2026-05-06 00:43 | -4.44859 | -33.00656 | 25006 ft | 329 kts | 204° |
| 2026-05-06 00:43 | -4.46767 | -33.01919 | 25017 ft | 330 kts | 221° |
| 2026-05-06 00:43 | -4.48488 | -33.03453 | 25016 ft | 331 kts | 223° |
| 2026-05-06 00:44 | -4.50170 | -33.05024 | 25004 ft | 331 kts | 223° |
| 2026-05-06 00:44 | -4.51843 | -33.06613 | 25006 ft | 332 kts | 223° |
| 2026-05-06 00:44 | -4.53465 | -33.08270 | 25006 ft | 332 kts | 235° |
| 2026-05-06 00:44 | -4.54455 | -33.10326 | 25008 ft | 329 kts | 259° |
| 2026-05-06 00:45 | -4.54557 | -33.12586 | 25009 ft | 324 kts | 282° |
| 2026-05-06 00:45 | -4.53776 | -33.14680 | 25018 ft | 321 kts | 307° |
| 2026-05-06 00:45 | -4.52258 | -33.16280 | 25018 ft | 317 kts | 328° |
| 2026-05-06 00:45 | -4.50258 | -33.17159 | 25014 ft | 314 kts | 351° |
| 2026-05-06 00:46 | -4.48127 | -33.17213 | 25012 ft | 311 kts | 13° |
| 2026-05-06 00:46 | -4.46120 | -33.16461 | 25006 ft | 309 kts | 34° |
| 2026-05-06 00:46 | -4.44429 | -33.15125 | 25009 ft | 311 kts | 41° |
| 2026-05-06 00:46 | -4.42822 | -33.13672 | 25019 ft | 311 kts | 43° |
| 2026-05-06 00:47 | -4.41250 | -33.12188 | 25007 ft | 311 kts | 44° |
| 2026-05-06 00:47 | -4.39682 | -33.10687 | 25016 ft | 311 kts | 44° |
| 2026-05-06 00:47 | -4.38194 | -33.09119 | 25002 ft | 310 kts | 56° |
| 2026-05-06 00:47 | -4.37301 | -33.07165 | 25006 ft | 311 kts | 77° |
| 2026-05-06 00:48 | -4.37199 | -33.05001 | 25007 ft | 313 kts | 99° |
| 2026-05-06 00:48 | -4.37926 | -33.02948 | 25010 ft | 316 kts | 121° |
| 2026-05-06 00:48 | -4.39385 | -33.01328 | 25009 ft | 320 kts | 144° |
| 2026-05-06 00:48 | -4.41400 | -33.00380 | 25015 ft | 323 kts | 167° |
| 2026-05-06 00:49 | -4.43650 | -33.00300 | 25010 ft | 328 kts | 191° |
| 2026-05-06 00:49 | -4.45764 | -33.01136 | 25011 ft | 330 kts | 215° |
| 2026-05-06 00:49 | -4.47533 | -33.02603 | 25020 ft | 331 kts | 222° |
| 2026-05-06 00:49 | -4.49231 | -33.04162 | 25013 ft | 330 kts | 223° |
| 2026-05-06 00:50 | -4.50904 | -33.05744 | 25014 ft | 331 kts | 223° |
| 2026-05-06 00:50 | -4.52581 | -33.07340 | 25022 ft | 333 kts | 224° |
| 2026-05-06 00:50 | -4.54001 | -33.09152 | 25007 ft | 330 kts | 246° |
| 2026-05-06 00:50 | -4.54600 | -33.11352 | 25015 ft | 327 kts | 270° |
| 2026-05-06 00:51 | -4.54290 | -33.13584 | 25012 ft | 323 kts | 294° |
| 2026-05-06 00:51 | -4.53139 | -33.15488 | 25014 ft | 319 kts | 317° |
| 2026-05-06 00:51 | -4.51365 | -33.16778 | 25014 ft | 316 kts | 339° |
| 2026-05-06 00:51 | -4.49254 | -33.17283 | 25017 ft | 312 kts | 1° |
| 2026-05-06 00:52 | -4.47157 | -33.16961 | 25016 ft | 309 kts | 22° |
| 2026-05-06 00:52 | -4.45320 | -33.15878 | 25020 ft | 308 kts | 40° |
| 2026-05-06 00:52 | -4.43685 | -33.14466 | 25012 ft | 311 kts | 42° |
| 2026-05-06 00:52 | -4.42096 | -33.12993 | 25019 ft | 310 kts | 44° |
| 2026-05-06 00:53 | -4.40527 | -33.11496 | 25016 ft | 311 kts | 44° |
| 2026-05-06 00:53 | -4.38957 | -33.09991 | 25013 ft | 312 kts | 45° |
| 2026-05-06 00:53 | -4.37683 | -33.08258 | 25012 ft | 310 kts | 65° |
| 2026-05-06 00:53 | -4.37141 | -33.06178 | 25015 ft | 311 kts | 86° |
| 2026-05-06 00:54 | -4.37420 | -33.04035 | 25014 ft | 313 kts | 108° |
| 2026-05-06 00:54 | -4.38503 | -33.02139 | 25016 ft | 317 kts | 131° |
| 2026-05-06 00:54 | -4.40250 | -33.00796 | 25016 ft | 321 kts | 154° |
| 2026-05-06 00:54 | -4.42380 | -33.00236 | 25013 ft | 324 kts | 177° |
| 2026-05-06 00:55 | -4.44615 | -33.00558 | 25023 ft | 329 kts | 201° |
| 2026-05-06 00:55 | -4.46582 | -33.01760 | 25026 ft | 329 kts | 221° |
| 2026-05-06 00:55 | -4.48278 | -33.03267 | 25013 ft | 330 kts | 223° |
| 2026-05-06 00:55 | -4.49957 | -33.04835 | 25016 ft | 330 kts | 223° |
| 2026-05-06 00:56 | -4.51622 | -33.06419 | 25019 ft | 331 kts | 224° |
| 2026-05-06 00:56 | -4.53266 | -33.08036 | 25018 ft | 331 kts | 231° |
| 2026-05-06 00:56 | -4.54374 | -33.10026 | 25020 ft | 327 kts | 255° |
| 2026-05-06 00:56 | -4.54604 | -33.12269 | 25021 ft | 324 kts | 279° |
| 2026-05-06 00:57 | -4.53944 | -33.14393 | 25021 ft | 320 kts | 303° |
| 2026-05-06 00:57 | -4.52527 | -33.16076 | 25021 ft | 316 kts | 324° |
| 2026-05-06 00:57 | -4.50599 | -33.17075 | 25020 ft | 313 kts | 347° |
| 2026-05-06 00:57 | -4.48448 | -33.17262 | 25022 ft | 309 kts | 10° |
| 2026-05-06 00:58 | -4.46413 | -33.16626 | 25017 ft | 307 kts | 31° |
| 2026-05-06 00:58 | -4.44702 | -33.15356 | 25032 ft | 308 kts | 41° |
| 2026-05-06 00:58 | -4.43116 | -33.13943 | 25020 ft | 309 kts | 43° |
| 2026-05-06 00:58 | -4.41531 | -33.12450 | 25016 ft | 309 kts | 44° |
| 2026-05-06 00:59 | -4.39965 | -33.10952 | 24731 ft | 316 kts | 44° |
| 2026-05-06 00:59 | -4.38395 | -33.09384 | 23976 ft | 329 kts | 52° |
| 2026-05-06 00:59 | -4.37288 | -33.07350 | 23140 ft | 340 kts | 74° |
| 2026-05-06 00:59 | -4.37039 | -33.04969 | 22209 ft | 353 kts | 96° |
| 2026-05-06 01:00 | -4.37789 | -33.02591 | 21265 ft | 367 kts | 119° |
| 2026-05-06 01:00 | -4.39524 | -33.00665 | 20320 ft | 383 kts | 143° |
| 2026-05-06 01:00 | -4.42001 | -32.99584 | 19365 ft | 399 kts | 165° |
| 2026-05-06 01:00 | -4.44751 | -32.99020 | 18413 ft | 407 kts | 161° |
| 2026-05-06 01:01 | -4.47254 | -32.97728 | 17355 ft | 407 kts | 139° |
| 2026-05-06 01:01 | -4.49044 | -32.95552 | 16313 ft | 408 kts | 116° |
| 2026-05-06 01:01 | -4.49808 | -32.92832 | 15495 ft | 408 kts | 93° |
| 2026-05-06 01:01 | -4.49391 | -32.90074 | 15187 ft | 396 kts | 73° |
| 2026-05-06 01:02 | -4.48346 | -32.87577 | 15028 ft | 382 kts | 65° |
| 2026-05-06 01:02 | -4.47023 | -32.85333 | 15010 ft | 366 kts | 56° |
| 2026-05-06 01:02 | -4.45340 | -32.83489 | 15020 ft | 352 kts | 41° |
| 2026-05-06 01:02 | -4.43279 | -32.82262 | 15021 ft | 341 kts | 24° |
| 2026-05-06 01:03 | -4.41053 | -32.81575 | 15019 ft | 328 kts | 19° |
| 2026-05-06 01:03 | -4.38906 | -32.80968 | 15018 ft | 314 kts | 19° |
| 2026-05-06 01:03 | -4.36844 | -32.80385 | 15021 ft | 301 kts | 19° |
| 2026-05-06 01:03 | -4.34876 | -32.79822 | 15019 ft | 288 kts | 19° |
| 2026-05-06 01:04 | -4.32987 | -32.79277 | 15022 ft | 276 kts | 19° |
| 2026-05-06 01:04 | -4.31168 | -32.78746 | 15019 ft | 269 kts | 20° |
| 2026-05-06 01:04 | -4.29378 | -32.78219 | 15020 ft | 268 kts | 20° |
| 2026-05-06 01:04 | -4.27591 | -32.77691 | 15022 ft | 267 kts | 20° |
| 2026-05-06 01:05 | -4.25804 | -32.77162 | 14879 ft | 270 kts | 20° |
| 2026-05-06 01:05 | -4.23969 | -32.76619 | 14206 ft | 279 kts | 20° |
| 2026-05-06 01:05 | -4.22723 | -32.76251 | 13755 ft | 285 kts | 20° |
| 2026-05-06 01:05 | -4.20794 | -32.75683 | 12980 ft | 292 kts | 20° |
| 2026-05-06 01:06 | -4.18828 | -32.75104 | 12207 ft | 298 kts | 20° |
| 2026-05-06 01:06 | -4.16823 | -32.74515 | 11435 ft | 302 kts | 20° |
| 2026-05-06 01:06 | -4.14796 | -32.73921 | 10695 ft | 304 kts | 19° |
| 2026-05-06 01:06 | -4.12768 | -32.73330 | 10211 ft | 303 kts | 19° |
| 2026-05-06 01:07 | -4.10742 | -32.72739 | 9836 ft | 303 kts | 20° |
| 2026-05-06 01:07 | -4.08723 | -32.72148 | 9447 ft | 301 kts | 19° |
| 2026-05-06 01:07 | -4.06721 | -32.71565 | 9096 ft | 298 kts | 19° |
| 2026-05-06 01:07 | -4.04739 | -32.70985 | 8740 ft | 295 kts | 20° |
| 2026-05-06 01:08 | -4.02778 | -32.70408 | 8399 ft | 292 kts | 20° |
| 2026-05-06 01:08 | -4.00857 | -32.69843 | 8062 ft | 289 kts | 20° |
| 2026-05-06 01:08 | -3.98939 | -32.69279 | 7723 ft | 286 kts | 20° |
| 2026-05-06 01:08 | -3.97035 | -32.68719 | 7387 ft | 283 kts | 19° |
| 2026-05-06 01:09 | -3.95149 | -32.68167 | 7057 ft | 281 kts | 19° |
| 2026-05-06 01:09 | -3.93283 | -32.67619 | 6724 ft | 278 kts | 21° |
| 2026-05-06 01:09 | -3.91521 | -32.66879 | 6539 ft | 275 kts | 24° |
| 2026-05-06 01:09 | -3.89758 | -32.66079 | 5821 ft | 278 kts | 28° |
| 2026-05-06 01:10 | -3.88000 | -32.65282 | 5440 ft | 276 kts | 28° |
| 2026-05-06 01:10 | -3.86247 | -32.64485 | 5027 ft | 276 kts | 30° |
| 2026-05-06 01:10 | -3.84766 | -32.63341 | 4611 ft | 266 kts | 57° |
| 2026-05-06 01:10 | -3.84048 | -32.61697 | 4206 ft | 255 kts | 86° |
| 2026-05-06 01:11 | -3.84078 | -32.59984 | 3832 ft | 248 kts | 98° |
| 2026-05-06 01:11 | -3.84218 | -32.58275 | 3444 ft | 242 kts | 98° |
| 2026-05-06 01:11 | -3.84343 | -32.56655 | 3083 ft | 225 kts | 98° |
| 2026-05-06 01:11 | -3.84456 | -32.55146 | 2749 ft | 210 kts | 98° |
| 2026-05-06 01:12 | -3.84565 | -32.53721 | 2433 ft | 200 kts | 98° |
| 2026-05-06 01:12 | -3.84669 | -32.52362 | 2151 ft | 191 kts | 98° |
| 2026-05-06 01:12 | -3.84767 | -32.51074 | 1896 ft | 178 kts | 98° |
| 2026-05-06 01:12 | -3.84853 | -32.49898 | 1648 ft | 158 kts | 98° |
| 2026-05-06 01:13 | -3.84942 | -32.48857 | 1378 ft | 144 kts | 97° |
| 2026-05-06 01:13 | -3.85010 | -32.47876 | 1038 ft | 137 kts | 98° |
| 2026-05-06 01:13 | -3.85069 | -32.46950 | 905 ft | 132 kts | 101° |
| 2026-05-06 01:13 | -3.85150 | -32.46030 | 754 ft | 131 kts | 97° |
| 2026-05-06 01:14 | -3.85297 | -32.44211 | 457 ft | 132 kts | 95° |
| 2026-05-06 01:14 | -3.85365 | -32.43300 | 253 ft | 130 kts | 99° |
| 2026-05-06 01:14 | -3.85437 | -32.42447 | 168 ft | 102 kts | 93° |
| 2026-05-06 01:15 | -3.85471 | -32.42000 | 176 ft | 46 kts | 94° |
| 2026-05-06 01:15 | -3.85483 | -32.41762 | 176 ft | 26 kts | 81° |
| 2026-05-06 01:15 | -3.85493 | -32.41683 | 177 ft | 6 kts | 243° |
| 2026-05-06 01:15 | -3.85482 | -32.41827 | 175 ft | 28 kts | 275° |
| 2026-05-06 01:16 | -3.85466 | -32.42029 | 176 ft | 30 kts | 274° |
| 2026-05-06 01:16 | -3.85449 | -32.42253 | 169 ft | 34 kts | 275° |
| 2026-05-06 01:16 | -3.85431 | -32.42500 | 169 ft | 36 kts | 275° |
| 2026-05-06 01:16 | -3.85418 | -32.42665 | 167 ft | 18 kts | 275° |
| 2026-05-06 01:17 | -3.85474 | -32.42747 | 167 ft | 15 kts | 202° |
| 2026-05-06 01:17 | -3.85554 | -32.42796 | 170 ft | 13 kts | 256° |
| 2026-05-06 01:17 | -3.85584 | -32.42824 | 170 ft | 6 kts | 186° |
| 2026-05-06 01:17 | -3.85591 | -32.42824 | 170 ft | 1 kts | 180° |
| 2026-05-06 01:18 | -3.85594 | -32.42824 | 170 ft | 0 kts | 182° |